Time;durP1;ratioP1;P1;durP2;ratioP2;P2;SDS_P1;SDS_P2;PMS_P1;PMS_P2;Temp;Humidity;BMP_temperature;BMP_pressure;BME280_temperature;BME280_humidity;BME280_pressure;Samples;Min_cycle;Max_cycle;Signal;HPM_P1;HPM_P2
2021/07/06 14:05:28;;;;;;;0.30;0.30;;;;;;;32.15;30.83;98267.47;5111491;27;20894;-92
2021/07/06 14:07:55;;;;;;;0.25;0.25;;;;;;;32.00;29.86;98247.69;5110105;28;20070;-92
2021/07/06 14:10:22;;;;;;;0.30;0.30;;;;;;;31.94;31.62;98244.34;5109893;28;20118;-92
2021/07/06 14:12:47;;;;;;;0.13;0.13;;;;;;;32.02;28.67;98244.97;5109995;28;20063;-91
2021/07/06 14:15:13;;;;;;;0.30;0.30;;;;;;;32.22;27.82;98268.69;5111077;28;20056;-91
2021/07/06 14:17:39;;;;;;;0.10;0.10;;;;;;;32.29;27.93;98274.31;5110691;28;20028;-89
2021/07/06 14:20:08;;;;;;;0.20;0.20;;;;;;;32.13;29.24;98255.88;5109699;28;20024;-88
2021/07/06 14:22:34;;;;;;;0.05;0.05;;;;;;;32.00;29.69;98252.66;5109700;28;20085;-91
2021/07/06 14:24:59;;;;;;;0.17;0.17;;;;;;;32.23;28.55;98264.50;5109610;28;20028;-88
2021/07/06 14:27:25;;;;;;;0.13;0.13;;;;;;;32.18;31.18;98274.13;5109655;28;20035;-89
2021/07/06 14:30:01;;;;;;;0.10;0.10;;;;;;;32.18;28.96;98266.28;5107681;28;20028;-91
2021/07/06 14:32:26;;;;;;;1.25;0.63;;;;;;;32.18;30.28;98254.84;5109188;28;20534;-87
2021/07/06 14:34:52;;;;;;;0.50;0.50;;;;;;;32.10;28.20;98251.31;5110333;28;20031;-90
2021/07/06 14:37:19;;;;;;;1.55;0.25;;;;;;;32.09;28.10;98249.81;5110249;28;20039;-90
2021/07/06 14:39:45;;;;;;;0.30;0.30;;;;;;;32.04;28.56;98253.72;5108781;28;20020;-88
2021/07/06 14:42:11;;;;;;;0.75;0.30;;;;;;;31.85;29.97;98247.91;5108478;28;20506;-88
2021/07/06 14:44:37;;;;;;;0.77;0.35;;;;;;;31.88;30.71;98249.59;5108081;28;20028;-92
2021/07/06 14:47:04;;;;;;;0.40;0.40;;;;;;;31.77;30.79;98235.84;5107602;28;20043;-92
2021/07/06 14:49:31;;;;;;;0.30;0.30;;;;;;;31.85;31.95;98248.66;5107535;28;20116;-92
2021/07/06 14:51:56;;;;;;;1.63;0.50;;;;;;;31.77;28.27;98255.84;5108501;28;20028;-88
2021/07/06 14:54:23;;;;;;;0.30;0.30;;;;;;;31.71;28.69;98243.97;5109383;28;20024;-87
2021/07/06 14:56:49;;;;;;;0.40;0.40;;;;;;;31.65;28.01;98243.47;5109354;28;20131;-86
2021/07/06 14:59:14;;;;;;;0.70;0.30;;;;;;;31.92;30.42;98256.38;5109012;28;20055;-88
2021/07/06 15:01:40;;;;;;;0.22;0.22;;;;;;;32.01;29.68;98268.47;5108812;28;20036;-88
2021/07/06 15:04:05;;;;;;;0.10;0.10;;;;;;;31.99;28.34;98268.28;5108751;28;20048;-89
2021/07/06 15:06:31;;;;;;;0.43;0.43;;;;;;;31.91;26.56;98262.69;5109206;28;20032;-87
2021/07/06 15:08:57;;;;;;;0.15;0.15;;;;;;;31.83;28.00;98276.31;5109125;28;20028;-91
2021/07/06 15:11:24;;;;;;;1.05;1.00;;;;;;;31.86;29.20;98263.72;5109263;28;20475;-88
2021/07/06 15:13:50;;;;;;;2.80;0.83;;;;;;;31.68;30.62;98248.75;5109198;28;20077;-89
2021/07/06 15:16:16;;;;;;;4.80;4.38;;;;;;;31.74;28.54;98254.19;5097279;28;20534;-90
2021/07/06 15:18:41;;;;;;;1.33;1.23;;;;;;;31.51;28.84;98235.25;5095757;28;20036;-93
2021/07/06 15:21:07;;;;;;;0.10;0.10;;;;;;;31.54;28.00;98248.31;5096207;28;20107;-90
2021/07/06 15:23:33;;;;;;;0.68;0.68;;;;;;;31.59;29.82;98265.84;5096143;28;20024;-89
2021/07/06 15:25:58;;;;;;;0.43;0.43;;;;;;;31.62;28.92;98264.63;5095338;28;20483;-88
2021/07/06 15:28:24;;;;;;;0.40;0.40;;;;;;;31.63;30.45;98278.34;5095371;28;20089;-88
2021/07/06 15:30:50;;;;;;;0.32;0.30;;;;;;;31.41;28.55;98257.25;5095086;28;20099;-89
2021/07/06 15:33:16;;;;;;;0.20;0.20;;;;;;;31.40;29.90;98263.59;5094854;28;20108;-91
2021/07/06 15:35:41;;;;;;;4.10;1.17;;;;;;;31.47;28.60;98272.03;5094209;28;20522;-88
2021/07/06 15:38:07;;;;;;;0.40;0.40;;;;;;;31.20;30.09;98247.66;5095795;28;20028;-88
2021/07/06 15:40:34;;;;;;;0.10;0.10;;;;;;;31.00;30.21;98229.59;5096085;28;20022;-87
2021/07/06 15:43:01;;;;;;;0.65;0.40;;;;;;;30.96;31.04;98237.84;5096309;28;20463;-93
2021/07/06 15:45:28;;;;;;;0.80;0.68;;;;;;;31.33;30.62;98273.75;5095613;28;20024;-89
2021/07/06 15:47:56;;;;;;;0.63;0.63;;;;;;;31.23;29.60;98275.00;5095447;28;20056;-91
2021/07/06 15:50:26;;;;;;;0.88;0.80;;;;;;;31.10;29.39;98268.34;5095794;28;20024;-88
2021/07/06 15:52:52;;;;;;;0.20;0.20;;;;;;;31.11;30.18;98278.38;5094657;28;20093;-90
2021/07/06 15:55:18;;;;;;;0.30;0.30;;;;;;;31.05;29.57;98277.88;5094642;28;20032;-90
2021/07/06 15:57:44;;;;;;;0.20;0.20;;;;;;;30.87;30.54;98278.44;5094637;28;20028;-86
2021/07/06 16:00:10;;;;;;;0.65;0.65;;;;;;;30.95;30.54;98291.31;5095100;28;20372;-90
2021/07/06 16:02:37;;;;;;;0.40;0.40;;;;;;;30.85;30.91;98299.03;5094992;28;20032;-93
2021/07/06 16:05:05;;;;;;;0.20;0.20;;;;;;;30.76;31.57;98290.34;5094130;28;20139;-93
2021/07/06 16:07:31;;;;;;;0.15;0.15;;;;;;;30.61;32.10;98302.69;5094835;28;20036;-94
2021/07/06 16:09:57;;;;;;;0.20;0.20;;;;;;;30.51;31.48;98285.47;5094926;28;20127;-90
2021/07/06 16:12:22;;;;;;;0.52;0.52;;;;;;;30.44;31.60;98297.69;5095548;28;20026;-94
2021/07/06 16:14:48;;;;;;;0.47;0.30;;;;;;;30.45;31.99;98306.97;5094614;28;20028;-93
2021/07/06 16:17:13;;;;;;;0.35;0.35;;;;;;;30.29;32.20;98304.25;5094955;28;20059;-90
2021/07/06 16:19:39;;;;;;;0.30;0.30;;;;;;;30.15;32.03;98302.28;5094817;28;20494;-92
2021/07/06 16:22:05;;;;;;;0.20;0.20;;;;;;;30.29;32.19;98306.34;5094029;28;20102;-90
2021/07/06 16:24:31;;;;;;;0.22;0.22;;;;;;;30.27;32.72;98312.63;5093965;28;20049;-90
2021/07/06 16:26:57;;;;;;;0.15;0.15;;;;;;;30.19;33.10;98306.25;5093042;28;20114;-91
2021/07/06 16:29:22;;;;;;;0.47;0.35;;;;;;;30.08;32.27;98317.34;5093896;28;20039;-89
2021/07/06 16:31:48;;;;;;;2.20;0.52;;;;;;;29.95;32.35;98306.22;5093882;28;20073;-92
2021/07/06 16:34:13;;;;;;;0.50;0.50;;;;;;;29.90;33.03;98313.63;5095169;28;20035;-92
2021/07/06 16:36:41;;;;;;;0.28;0.25;;;;;;;29.92;33.26;98310.97;5093879;28;20035;-91
2021/07/06 16:39:08;;;;;;;0.63;0.20;;;;;;;29.85;32.62;98331.69;5094720;28;20040;-92
2021/07/06 16:41:37;;;;;;;0.20;0.20;;;;;;;29.75;33.52;98325.88;5093985;28;20127;-90
2021/07/06 16:44:04;;;;;;;0.80;0.45;;;;;;;29.59;33.64;98327.28;5094005;28;20036;-91
2021/07/06 16:46:30;;;;;;;0.20;0.20;;;;;;;29.47;33.34;98311.97;5094987;28;20031;-93
2021/07/06 16:48:56;;;;;;;0.65;0.30;;;;;;;29.41;33.71;98305.75;5094405;28;20036;-89
2021/07/06 18:00:21;;;;;;;0.13;0.13;;;;;;;26.00;53.57;98393.22;5031774;28;20044;-90
2021/07/06 18:05:30;;;;;;;1.40;0.98;;;;;;;25.69;55.47;98411.91;5031529;28;20064;-90
2021/07/06 18:07:56;;;;;;;1.20;1.10;;;;;;;25.54;55.18;98406.81;5014766;28;20057;-90
2021/07/06 18:10:22;;;;;;;0.17;0.17;;;;;;;25.35;54.53;98383.53;5067175;28;20119;-90
2021/07/06 18:12:48;;;;;;;1.30;0.28;;;;;;;25.18;53.72;98377.47;5092523;28;20027;-89
2021/07/06 18:15:13;;;;;;;1.13;0.52;;;;;;;25.33;54.51;98418.00;5092333;28;20476;-90
2021/07/06 18:17:42;;;;;;;0.52;0.52;;;;;;;25.20;54.79;98417.28;5092230;28;20032;-89
2021/07/06 18:20:08;;;;;;;0.88;0.88;;;;;;;25.05;56.09;98429.88;5092713;28;20032;-93
2021/07/06 18:22:34;;;;;;;0.90;0.68;;;;;;;24.86;56.81;98423.50;5091537;28;20132;-90
2021/07/06 18:25:00;;;;;;;1.10;0.60;;;;;;;24.75;57.50;98437.84;5092172;28;20486;-88
2021/07/06 18:27:26;;;;;;;1.95;0.85;;;;;;;24.35;57.49;98405.91;5092098;28;20035;-89
2021/07/06 18:29:51;;;;;;;0.68;0.68;;;;;;;24.36;59.08;98432.06;5091735;28;20030;-90
2021/07/06 18:32:17;;;;;;;0.60;0.60;;;;;;;24.20;59.42;98434.63;5091880;28;20055;-90
2021/07/06 18:34:42;;;;;;;0.10;0.10;;;;;;;24.16;60.25;98442.59;5092254;28;20051;-89
2021/07/06 18:37:08;;;;;;;0.45;0.45;;;;;;;24.05;61.21;98442.00;5091924;28;20387;-92
2021/07/06 18:39:33;;;;;;;2.08;0.93;;;;;;;23.94;60.81;98443.66;5091901;28;20450;-91
2021/07/06 18:41:59;;;;;;;0.25;0.25;;;;;;;23.75;61.75;98425.25;5091924;28;20058;-93
2021/07/06 18:44:25;;;;;;;1.92;0.80;;;;;;;23.80;62.10;98455.44;5091505;28;20490;-94
2021/07/06 18:46:50;;;;;;;0.45;0.45;;;;;;;23.66;62.73;98445.34;5091895;28;20031;-93
2021/07/06 18:49:16;;;;;;;0.40;0.40;;;;;;;23.73;62.67;98484.25;5091615;28;20081;-92
2021/07/06 18:51:42;;;;;;;1.00;0.63;;;;;;;23.69;62.87;98461.22;5094057;28;20020;-92
2021/07/06 18:54:08;;;;;;;0.75;0.75;;;;;;;23.35;62.76;98424.91;5095688;28;20061;-91
2021/07/06 18:56:34;;;;;;;0.40;0.40;;;;;;;23.37;62.21;98433.63;5095238;28;20028;-91
2021/07/06 18:58:59;;;;;;;1.17;1.05;;;;;;;23.69;62.04;98478.16;5095326;28;20098;-91
2021/07/06 19:01:25;;;;;;;0.40;0.40;;;;;;;23.44;62.05;98447.13;5095505;28;20031;-90
2021/07/06 19:03:51;;;;;;;0.22;0.22;;;;;;;23.55;62.15;98482.16;5094946;28;20055;-90
2021/07/06 19:06:16;;;;;;;1.13;0.98;;;;;;;23.41;62.50;98465.09;5095435;28;20032;-91
2021/07/06 19:08:42;;;;;;;0.52;0.50;;;;;;;23.49;62.08;98494.28;5095309;28;20028;-91
2021/07/06 19:11:09;;;;;;;0.90;0.90;;;;;;;23.41;62.31;98496.13;5095722;28;20115;-93
2021/07/06 19:13:38;;;;;;;0.52;0.52;;;;;;;23.31;62.07;98472.41;5095064;28;20129;-89
2021/07/06 19:16:07;;;;;;;0.60;0.60;;;;;;;23.47;61.70;98488.38;5095242;28;20506;-91
2021/07/06 19:18:38;;;;;;;0.60;0.60;;;;;;;23.45;61.46;98505.03;5095079;28;20042;-90
2021/07/06 19:21:03;;;;;;;0.30;0.30;;;;;;;23.37;61.98;98498.47;5095251;28;20036;-89
2021/07/06 19:31:48;;;;;;;0.88;0.88;;;;;;;23.03;62.79;98509.28;5096029;28;20439;-91
2021/07/06 19:34:14;;;;;;;0.22;0.22;;;;;;;23.00;63.39;98509.59;5094441;28;20040;-90
2021/07/06 19:36:39;;;;;;;0.73;0.70;;;;;;;23.04;63.14;98515.69;5095476;28;20024;-90
2021/07/06 19:39:07;;;;;;;0.80;0.80;;;;;;;22.99;63.58;98516.53;5096091;28;20035;-90
2021/07/06 19:41:33;;;;;;;0.90;0.90;;;;;;;22.86;63.40;98494.59;5095036;28;20114;-89
2021/07/06 19:43:58;;;;;;;0.50;0.45;;;;;;;23.06;63.05;98513.13;5094460;28;20491;-90
2021/07/06 19:46:25;;;;;;;0.13;0.13;;;;;;;23.16;62.75;98525.59;5094504;28;20062;-93
2021/07/06 19:48:50;;;;;;;8.98;1.33;;;;;;;23.19;63.40;98521.72;5095005;28;20494;-89
2021/07/06 19:51:17;;;;;;;1.27;1.17;;;;;;;23.10;63.04;98514.34;5094353;28;20024;-90
2021/07/06 19:53:43;;;;;;;0.73;0.43;;;;;;;23.02;62.63;98501.38;5094277;28;20032;-92
2021/07/06 19:56:08;;;;;;;0.47;0.47;;;;;;;23.18;62.35;98514.56;5094139;28;20043;-90
2021/07/06 19:58:34;;;;;;;9.48;0.82;;;;;;;23.27;61.87;98505.00;5094035;28;20028;-90
2021/07/06 20:01:00;;;;;;;0.90;0.60;;;;;;;23.24;62.20;98512.44;5094213;28;20035;-92
2021/07/06 20:03:25;;;;;;;0.20;0.20;;;;;;;23.19;61.99;98499.16;5093596;28;20036;-92
2021/07/06 20:05:52;;;;;;;0.30;0.30;;;;;;;23.11;61.75;98475.66;5093967;28;20027;-93
2021/07/06 20:08:18;;;;;;;0.60;0.60;;;;;;;23.19;61.71;98481.50;5093892;28;20035;-92
2021/07/06 20:10:43;;;;;;;1.40;0.82;;;;;;;23.35;61.85;98506.69;5094151;28;20036;-94
2021/07/06 20:13:09;;;;;;;0.63;0.63;;;;;;;23.24;61.89;98489.88;5094253;28;20082;-93
2021/07/06 20:15:34;;;;;;;0.50;0.50;;;;;;;23.35;61.78;98522.84;5094461;28;20060;-94
2021/07/06 20:18:00;;;;;;;0.50;0.50;;;;;;;23.29;61.63;98502.41;5094116;28;20061;-91
2021/07/06 20:20:26;;;;;;;4.47;0.50;;;;;;;23.28;62.02;98500.88;5093744;28;20031;-92
2021/07/06 20:22:51;;;;;;;6.95;0.63;;;;;;;23.19;62.17;98489.94;5093534;28;20028;-93
2021/07/06 20:25:17;;;;;;;0.65;0.40;;;;;;;23.30;62.23;98515.97;5093730;28;20028;-92
2021/07/06 20:27:42;;;;;;;1.25;1.15;;;;;;;23.27;62.44;98505.00;5093887;28;20031;-93
2021/07/06 20:30:11;;;;;;;0.45;0.45;;;;;;;23.23;62.97;98510.91;5093541;28;20027;-91
2021/07/06 20:32:37;;;;;;;0.85;0.40;;;;;;;23.21;62.89;98510.66;5093470;28;20419;-90
2021/07/06 20:35:04;;;;;;;2.40;0.65;;;;;;;23.10;63.01;98511.53;5093753;28;20024;-90
2021/07/06 20:37:30;;;;;;;1.40;1.27;;;;;;;22.94;63.41;98489.16;5093424;28;20035;-91
2021/07/06 20:39:56;;;;;;;0.40;0.40;;;;;;;23.14;63.03;98505.63;5093588;28;20032;-93
2021/07/06 20:42:22;;;;;;;0.98;0.68;;;;;;;23.07;62.81;98497.75;5093503;28;20050;-90
2021/07/06 20:44:50;;;;;;;1.08;1.08;;;;;;;23.16;62.63;98522.00;5092232;28;20024;-94
2021/07/06 20:47:15;;;;;;;2.53;0.85;;;;;;;23.19;62.42;98524.53;5093205;28;20043;-92
2021/07/06 20:49:42;;;;;;;0.50;0.50;;;;;;;23.11;62.17;98498.22;5093266;28;20036;-91
2021/07/06 20:52:08;;;;;;;0.63;0.63;;;;;;;23.26;62.20;98523.97;5092999;28;20035;-91
2021/07/06 20:54:39;;;;;;;0.43;0.43;;;;;;;23.22;62.59;98525.53;5093070;28;20391;-90
2021/07/06 20:57:05;;;;;;;0.30;0.30;;;;;;;23.16;62.49;98517.13;5093234;28;20032;-90
2021/07/06 20:59:30;;;;;;;0.52;0.52;;;;;;;22.98;63.03;98500.91;5092995;28;20180;-91
2021/07/06 21:01:56;;;;;;;0.85;0.85;;;;;;;22.97;62.51;98499.38;5093386;28;20111;-91
2021/07/06 21:04:21;;;;;;;0.40;0.40;;;;;;;23.01;62.78;98508.31;5092571;28;20058;-92
2021/07/06 21:06:47;;;;;;;1.20;1.15;;;;;;;22.77;62.96;98494.19;5093104;28;20067;-93
2021/07/06 21:09:12;;;;;;;0.95;0.90;;;;;;;22.80;62.94;98502.34;5093125;28;20028;-90
2021/07/06 21:11:38;;;;;;;1.02;1.02;;;;;;;22.79;63.52;98517.69;5092968;28;20024;-90
2021/07/06 21:14:06;;;;;;;0.40;0.40;;;;;;;22.81;63.20;98525.63;5092255;28;20035;-94
2021/07/06 21:16:31;;;;;;;0.35;0.35;;;;;;;22.81;63.10;98522.81;5093041;28;20063;-90
2021/07/06 21:18:57;;;;;;;0.68;0.68;;;;;;;22.58;63.18;98506.06;5092974;28;20067;-90
2021/07/06 21:21:22;;;;;;;0.95;0.55;;;;;;;22.64;63.46;98534.97;5092830;28;20023;-92
2021/07/06 21:23:48;;;;;;;0.50;0.50;;;;;;;22.64;63.34;98534.97;5092717;28;20095;-91
2021/07/06 21:26:13;;;;;;;1.08;0.75;;;;;;;22.67;63.31;98530.31;5092440;28;20032;-91
2021/07/06 21:28:39;;;;;;;0.20;0.20;;;;;;;22.61;63.63;98512.69;5092397;28;20064;-92
2021/07/06 21:31:05;;;;;;;1.27;1.08;;;;;;;22.57;63.11;98518.63;5092931;28;20066;-92
2021/07/06 21:33:30;;;;;;;2.15;1.27;;;;;;;22.53;63.19;98523.78;5092579;28;20024;-91
2021/07/06 21:35:56;;;;;;;0.57;0.57;;;;;;;22.55;63.17;98524.00;5092372;28;20096;-91
2021/07/06 21:38:21;;;;;;;1.67;1.50;;;;;;;22.53;63.13;98518.16;5092280;28;20121;-89
2021/07/06 21:40:47;;;;;;;0.40;0.40;;;;;;;22.51;63.22;98525.56;5092595;28;20020;-92
2021/07/06 21:43:12;;;;;;;0.30;0.30;;;;;;;22.48;63.54;98527.41;5092176;28;20406;-95
2021/07/06 21:45:38;;;;;;;0.73;0.73;;;;;;;22.50;63.21;98530.44;5093583;28;20032;-94
2021/07/06 21:48:04;;;;;;;0.75;0.68;;;;;;;22.30;62.88;98494.25;5094119;28;20445;-93
2021/07/06 21:50:30;;;;;;;0.60;0.60;;;;;;;22.36;62.54;98505.47;5092919;28;20032;-92
2021/07/06 21:52:55;;;;;;;0.65;0.65;;;;;;;22.53;62.02;98531.47;5093253;28;20032;-95
2021/07/06 21:55:21;;;;;;;18.67;0.90;;;;;;;22.45;62.49;98503.09;5094130;28;20571;-91
2021/07/06 21:57:46;;;;;;;0.43;0.43;;;;;;;22.32;62.65;98500.09;5093697;28;20084;-94
2021/07/06 22:00:15;;;;;;;0.82;0.80;;;;;;;22.33;62.76;98504.44;5092858;28;20024;-93
2021/07/06 22:02:41;;;;;;;1.17;1.10;;;;;;;22.38;63.27;98520.53;5093563;28;20478;-94
2021/07/06 22:05:08;;;;;;;0.73;0.55;;;;;;;22.26;63.08;98507.81;5094656;28;20435;-95
2021/07/06 22:07:34;;;;;;;0.35;0.35;;;;;;;22.29;62.89;98512.41;5092985;28;20027;-95
2021/07/06 22:10:00;;;;;;;1.65;1.02;;;;;;;22.32;62.99;98519.81;5093110;28;20119;-94
2021/07/06 22:12:25;;;;;;;0.75;0.75;;;;;;;22.30;62.36;98519.56;5093366;28;20020;-95
2021/07/06 22:14:51;;;;;;;0.82;0.82;;;;;;;22.31;62.77;98526.72;5092811;28;20403;-92
2021/07/06 22:17:16;;;;;;;0.40;0.40;;;;;;;22.23;62.97;98509.63;5092712;28;20077;-91
2021/07/06 22:19:42;;;;;;;0.65;0.65;;;;;;;22.19;63.31;98520.38;5092620;28;20039;-94
2021/07/06 22:22:07;;;;;;;1.05;1.02;;;;;;;22.08;63.03;98511.25;5092481;28;20028;-94
2021/07/06 22:24:34;;;;;;;0.68;0.68;;;;;;;22.18;63.29;98520.94;5092475;28;20031;-91
2021/07/06 22:27:01;;;;;;;0.50;0.50;;;;;;;21.97;62.65;98488.78;5095721;28;20479;-93
2021/07/06 22:29:27;;;;;;;0.57;0.25;;;;;;;22.02;63.07;98499.25;5096229;28;20032;-91
2021/07/06 22:31:52;;;;;;;2.72;1.05;;;;;;;22.10;62.43;98517.13;5097375;28;20460;-91
2021/07/06 22:34:18;;;;;;;1.67;0.68;;;;;;;22.05;63.13;98509.47;5097530;28;20042;-92
2021/07/06 22:36:43;;;;;;;0.68;0.68;;;;;;;22.05;62.62;98512.28;5096079;28;20047;-93
2021/07/06 22:39:09;;;;;;;2.85;0.75;;;;;;;22.07;62.99;98516.09;5096396;28;20027;-93
2021/07/06 22:41:35;;;;;;;0.65;0.65;;;;;;;22.00;62.77;98521.53;5096696;28;20399;-93
2021/07/06 22:44:00;;;;;;;0.45;0.45;;;;;;;22.01;62.43;98523.81;5095989;28;20122;-92
2021/07/06 22:46:26;;;;;;;0.65;0.65;;;;;;;21.92;62.75;98512.84;5096607;28;20521;-92
2021/07/06 22:48:51;;;;;;;0.45;0.45;;;;;;;21.97;62.59;98522.56;5096101;28;20036;-93
2021/07/06 22:51:17;;;;;;;0.30;0.30;;;;;;;21.82;63.13;98512.34;5095974;28;20463;-91
2021/07/06 22:53:43;;;;;;;0.40;0.40;;;;;;;21.87;62.21;98522.84;5096471;28;20085;-92
2021/07/06 22:56:08;;;;;;;0.73;0.73;;;;;;;21.88;62.51;98523.59;5096361;28;20020;-94
2021/07/06 22:58:34;;;;;;;0.20;0.20;;;;;;;21.82;62.67;98520.78;5096296;28;20028;-95
2021/07/06 23:00:59;;;;;;;1.17;0.95;;;;;;;21.88;62.87;98527.16;5096061;28;20411;-94
2021/07/06 23:03:25;;;;;;;0.50;0.50;;;;;;;21.71;63.15;98514.44;5095893;28;20040;-94
2021/07/06 23:05:51;;;;;;;1.33;0.52;;;;;;;21.78;63.13;98522.34;5097429;28;20032;-94
2021/07/06 23:08:17;;;;;;;3.20;1.10;;;;;;;21.74;63.05;98519.81;5096699;28;20021;-95
2021/07/06 23:10:43;;;;;;;0.25;0.22;;;;;;;21.73;62.71;98521.09;5096999;28;20020;-95
2021/07/06 23:13:09;;;;;;;0.30;0.30;;;;;;;21.71;62.89;98522.88;5096307;28;20046;-94
2021/07/06 23:15:34;;;;;;;0.47;0.47;;;;;;;21.71;63.22;98511.63;5096432;28;20020;-93
2021/07/06 23:18:00;;;;;;;1.15;1.05;;;;;;;21.56;62.78;98491.50;5096356;28;20485;-96
2021/07/06 23:20:25;;;;;;;0.20;0.20;;;;;;;21.64;62.64;98506.56;5096936;28;20032;-96
2021/07/06 23:22:51;;;;;;;0.65;0.65;;;;;;;21.67;62.64;98525.97;5096861;28;20484;-94
2021/07/06 23:25:16;;;;;;;0.57;0.57;;;;;;;21.71;62.46;98514.44;5096543;28;20077;-95
2021/07/06 23:27:42;;;;;;;0.20;0.20;;;;;;;21.70;62.22;98524.91;5095890;28;20032;-94
2021/07/06 23:30:08;;;;;;;0.95;0.95;;;;;;;21.57;62.05;98502.25;5097447;28;20032;-94
2021/07/06 23:32:34;;;;;;;0.75;0.57;;;;;;;21.55;61.82;98475.91;5096650;28;20051;-93
2021/07/06 23:34:59;;;;;;;0.30;0.30;;;;;;;21.81;61.69;98507.25;5094995;28;20479;-95
2021/07/06 23:37:25;;;;;;;0.63;0.63;;;;;;;21.67;61.51;98500.66;5095548;28;20100;-91
2021/07/06 23:39:51;;;;;;;1.23;1.10;;;;;;;21.82;61.35;98517.97;5095252;28;20093;-95
2021/07/06 23:42:17;;;;;;;5.43;0.70;;;;;;;21.65;61.23;98491.97;5095517;28;20491;-94
2021/07/06 23:44:42;;;;;;;0.28;0.28;;;;;;;21.63;61.44;98500.16;5095267;28;20032;-93
2021/07/06 23:47:08;;;;;;;1.17;1.05;;;;;;;21.69;61.62;98503.72;5095246;28;20124;-92
2021/07/06 23:49:33;;;;;;;0.30;0.30;;;;;;;21.66;60.82;98504.75;5094895;28;20162;-88
2021/07/06 23:51:59;;;;;;;0.77;0.60;;;;;;;21.60;60.74;98477.94;5094512;28;20028;-89
2021/07/06 23:54:25;;;;;;;0.47;0.47;;;;;;;21.91;60.69;98531.75;5094866;28;20081;-92
2021/07/06 23:56:51;;;;;;;1.02;1.02;;;;;;;21.80;61.19;98531.03;5094771;28;20032;-89
2021/07/06 23:59:16;;;;;;;0.32;0.32;;;;;;;21.79;60.73;98512.63;5094739;28;20399;-90
